KECS/ECS METAR and TAF weather

Enter ICAO airport designator
Station Type Date Time Source
KECS METAR 2019/10/16 19:55 UTC NOAA

KECS 161955Z AUTO 21003KT 10SM CLR 18/M02 A3001 RMK AO2


Station Type Date Time Source
KECS Decoded METAR 2019/10/16 19:55 UTC NOAA

Station name not available
Oct 16, 2019 - 03:55 PM EDT / 2019.10.16 1955 UTC
Wind: from the SSW (210 degrees) at 3 MPH (3 KT):0
Visibility: 10 mile(s):0
Sky conditions: clear
Temperature: 64 F (18 C)
Dew Point: 28 F (-2 C)
Relative Humidity: 25%
Pressure (altimeter): 30.01 in. Hg (1016 hPa)
ob: KECS 161955Z AUTO 21003KT 10SM CLR 18/M02 A3001 RMK AO2
cycle: 20

Station Type Date Time Source
KECS TAF UTC NOAA

Error!

Example: see airport list